Time;durP1;ratioP1;P1;durP2;ratioP2;P2;SDS_P1;SDS_P2;PMS_P1;PMS_P2;Temp;Humidity;BMP_temperature;BMP_pressure;BME280_temperature;BME280_humidity;BME280_pressure;Samples;Min_cycle;Max_cycle;Signal;HPM_P1;HPM_P2
2021/01/16 00:00:21;;;;;;;;;;;;;;;18.12;61.48;100903.69;5086368;28;1275;-59
2021/01/16 00:02:47;;;;;;;;;;;;;;;18.09;61.84;100895.94;5075305;28;2261;-63
2021/01/16 00:05:15;;;;;;;;;;;;;;;18.06;61.39;100901.53;5076143;28;1463;-63
2021/01/16 00:07:41;;;;;;;;;;;;;;;18.08;61.58;100897.75;5076108;28;1447;-62
2021/01/16 00:10:07;;;;;;;;;;;;;;;18.06;61.66;100888.13;5076240;28;1507;-60
2021/01/16 00:12:32;;;;;;;;;;;;;;;18.07;61.39;100887.19;5076020;28;1423;-59
2021/01/16 00:14:57;;;;;;;;;;;;;;;18.08;61.57;100889.72;5076375;28;1474;-63
2021/01/16 00:17:23;;;;;;;;;;;;;;;18.07;61.05;100889.84;5075706;28;1498;-64
2021/01/16 00:19:48;;;;;;;;;;;;;;;18.05;61.50;100889.13;5076338;28;1439;-63
2021/01/16 00:22:13;;;;;;;;;;;;;;;18.03;61.91;100885.72;5075621;28;1910;-59
2021/01/16 00:24:39;;;;;;;;;;;;;;;18.05;60.93;100881.09;5076383;28;1577;-63
2021/01/16 00:27:04;;;;;;;;;;;;;;;18.05;61.32;100873.06;5058506;28;1503;-63
2021/01/16 00:29:29;;;;;;;;;;;;;;;18.04;61.00;100887.41;5076528;28;1547;-58
2021/01/16 00:31:55;;;;;;;;;;;;;;;18.02;61.63;100884.03;5076316;28;1521;-62
2021/01/16 00:34:20;;;;;;;;;;;;;;;17.99;61.73;100874.44;5075327;28;1511;-63
2021/01/16 00:36:46;;;;;;;;;;;;;;;17.97;61.66;100875.53;5053514;28;1321;-58
2021/01/16 00:39:11;;;;;;;;;;;;;;;17.96;61.79;100855.09;5075896;28;1522;-63
2021/01/16 00:41:36;;;;;;;;;;;;;;;17.98;61.67;100861.16;5076099;28;1379;-63
2021/01/16 00:44:02;;;;;;;;;;;;;;;17.98;61.56;100867.34;5075885;28;1943;-63
2021/01/16 00:46:27;;;;;;;;;;;;;;;17.98;61.45;100866.53;5075626;28;1347;-63
2021/01/16 00:48:52;;;;;;;;;;;;;;;17.95;60.90;100853.41;5076130;28;1657;-63
2021/01/16 00:51:18;;;;;;;;;;;;;;;17.97;61.71;100843.44;5075588;28;1573;-59
2021/01/16 00:53:43;;;;;;;;;;;;;;;17.91;60.81;100846.63;5074805;28;1439;-58
2021/01/16 00:56:09;;;;;;;;;;;;;;;17.92;61.34;100842.94;5075837;28;1481;-58
2021/01/16 00:58:34;;;;;;;;;;;;;;;17.91;61.50;100850.13;5058166;28;1525;-59
2021/01/16 01:01:00;;;;;;;;;;;;;;;17.87;61.46;100844.19;5076126;28;1592;-58
2021/01/16 01:03:25;;;;;;;;;;;;;;;17.90;60.63;100853.75;5088389;28;1902;-59
2021/01/16 01:05:51;;;;;;;;;;;;;;;17.87;61.78;100848.69;5079614;28;1509;-63
2021/01/16 01:08:17;;;;;;;;;;;;;;;17.83;61.88;100842.72;5075159;28;1495;-63
2021/01/16 01:10:44;;;;;;;;;;;;;;;17.83;61.34;100842.72;5074973;28;1461;-58
2021/01/16 01:13:09;;;;;;;;;;;;;;;17.84;61.56;100844.41;5075541;28;1455;-63
2021/01/16 01:15:38;;;;;;;;;;;;;;;17.81;61.71;100843.81;5076155;28;1450;-63
2021/01/16 01:18:04;;;;;;;;;;;;;;;17.82;60.82;100832.13;5075309;28;1462;-63
2021/01/16 01:20:29;;;;;;;;;;;;;;;17.82;61.49;100843.66;5072447;28;1423;-59
2021/01/16 01:22:55;;;;;;;;;;;;;;;17.82;61.81;100838.31;5075415;28;1967;-63
2021/01/16 01:25:21;;;;;;;;;;;;;;;17.80;61.89;100836.75;5075096;28;1510;-63
2021/01/16 01:27:50;;;;;;;;;;;;;;;17.79;60.92;100829.72;5075295;28;1455;-63
2021/01/16 01:30:16;;;;;;;;;;;;;;;17.82;61.87;100832.13;5074389;28;1573;-63
2021/01/16 01:32:42;;;;;;;;;;;;;;;17.80;60.77;100815.34;5074891;28;1453;-58
2021/01/16 01:35:08;;;;;;;;;;;;;;;17.79;61.69;100830.56;5073804;28;1495;-63
2021/01/16 01:37:33;;;;;;;;;;;;;;;17.81;60.35;100833.94;5075383;28;1513;-59
2021/01/16 01:39:58;;;;;;;;;;;;;;;17.79;60.97;100817.19;5074338;28;1522;-59
2021/01/16 01:42:24;;;;;;;;;;;;;;;17.82;61.42;100822.25;5073195;28;1953;-63
2021/01/16 01:44:49;;;;;;;;;;;;;;;17.79;61.09;100811.00;5074826;28;1506;-63
2021/01/16 01:47:15;;;;;;;;;;;;;;;17.76;61.34;100813.91;5073977;28;1490;-58
2021/01/16 01:49:41;;;;;;;;;;;;;;;17.75;60.97;100822.91;5073582;28;1454;-63
2021/01/16 01:52:10;;;;;;;;;;;;;;;17.75;61.52;100822.91;5073683;28;1375;-58
2021/01/16 01:54:36;;;;;;;;;;;;;;;17.74;61.19;100815.84;5071911;28;1392;-59
2021/01/16 01:57:02;;;;;;;;;;;;;;;17.73;60.08;100803.47;5073187;28;1491;-62
2021/01/16 01:59:33;;;;;;;;;;;;;;;17.74;60.67;100800.66;5072788;28;1562;-59
2021/01/16 02:01:58;;;;;;;;;;;;;;;17.72;61.24;100801.75;5067470;28;1456;-58
2021/01/16 02:04:24;;;;;;;;;;;;;;;17.72;60.65;100793.75;5074129;28;1925;-59
2021/01/16 02:06:50;;;;;;;;;;;;;;;17.70;60.63;100808.06;5074792;28;1518;-63
2021/01/16 02:09:15;;;;;;;;;;;;;;;17.69;61.06;100802.88;5074745;28;1486;-59
2021/01/16 02:11:41;;;;;;;;;;;;;;;17.66;60.20;100798.59;5074643;28;1566;-58
2021/01/16 02:14:06;;;;;;;;;;;;;;;17.69;60.82;100803.72;5074813;28;1474;-64
2021/01/16 02:16:36;;;;;;;;;;;;;;;17.67;61.04;100799.47;5074589;28;1487;-63
2021/01/16 02:19:04;;;;;;;;;;;;;;;17.67;60.50;100794.13;5057024;28;1494;-64
2021/01/16 02:21:32;;;;;;;;;;;;;;;17.65;61.15;100796.06;5066944;28;1305;-58
2021/01/16 02:24:04;;;;;;;;;;;;;;;17.61;60.16;100784.78;5074076;28;1914;-64
2021/01/16 02:26:48;;;;;;;;;;;;;;;17.65;60.61;100793.41;5075528;28;1470;-59
2021/01/16 02:29:13;;;;;;;;;;;;;;;17.60;60.53;100787.56;5088218;28;1836;-65
2021/01/16 02:31:44;;;;;;;;;;;;;;;17.62;60.86;100797.16;5081294;28;1705;-58
2021/01/16 02:34:19;;;;;;;;;;;;;;;17.59;61.35;100796.59;5067255;28;1657;-58
2021/01/16 02:37:11;;;;;;;;;;;;;;;17.59;60.84;100796.59;5080680;28;1590;-58
2021/01/16 02:39:55;;;;;;;;;;;;;;;17.60;60.68;100787.56;5072176;28;1661;-58
2021/01/16 02:42:27;;;;;;;;;;;;;;;17.59;59.93;100796.59;5084792;28;1933;-58
2021/01/16 02:44:58;;;;;;;;;;;;;;;17.59;60.73;100791.22;5082858;28;1613;-59
2021/01/16 02:47:35;;;;;;;;;;;;;;;17.63;60.78;100801.53;5089225;28;1593;-58
2021/01/16 02:50:00;;;;;;;;;;;;;;;17.63;60.12;100792.69;5083902;28;1693;-59
2021/01/16 02:52:27;;;;;;;;;;;;;;;17.61;60.96;100805.31;5081715;28;1550;-63
2021/01/16 02:54:52;;;;;;;;;;;;;;;17.63;60.74;100790.00;5078534;28;1751;-63
2021/01/16 02:57:18;;;;;;;;;;;;;;;17.60;61.03;100791.09;5073293;28;1746;-59
2021/01/16 02:59:47;;;;;;;;;;;;;;;17.58;60.78;100794.88;5082119;28;1670;-64
2021/01/16 03:04:40;;;;;;;;;;;;;;;17.59;60.74;100800.09;5040746;28;1638;-56
2021/01/16 03:07:07;;;;;;;;;;;;;;;17.58;59.65;100795.72;5044141;28;1848;-55
2021/01/16 03:09:34;;;;;;;;;;;;;;;17.57;59.52;100787.84;5041718;28;1845;-55
2021/01/16 03:12:00;;;;;;;;;;;;;;;17.61;60.48;100789.28;5063879;23;3644;-58
2021/01/16 03:14:34;;;;;;;;;;;;;;;17.58;59.49;100803.72;5052732;28;1389;-63
2021/01/16 03:17:12;;;;;;;;;;;;;;;17.57;59.74;100786.00;5053727;28;1796;-63
2021/01/16 03:19:41;;;;;;;;;;;;;;;17.58;59.52;100784.16;5041110;28;1714;-58
2021/01/16 03:22:28;;;;;;;;;;;;;;;17.35;60.98;100786.03;5053205;28;1571;-63
2021/01/16 03:24:55;;;;;;;;;;;;;;;17.19;62.73;100791.75;5041653;28;1793;-63
2021/01/16 03:27:21;;;;;;;;;;;;;;;17.10;62.16;100783.50;5053281;28;1654;-58
2021/01/16 03:29:47;;;;;;;;;;;;;;;17.07;62.63;100786.44;5053589;28;1741;-59
2021/01/16 03:32:13;;;;;;;;;;;;;;;17.04;62.55;100778.66;5053448;28;1725;-63
2021/01/16 03:34:39;;;;;;;;;;;;;;;17.03;63.11;100785.00;5053013;28;1583;-58
2021/01/16 03:37:05;;;;;;;;;;;;;;;16.99;63.08;100778.19;5053572;28;1626;-62
2021/01/16 03:39:30;;;;;;;;;;;;;;;16.98;63.07;100783.66;5053582;28;1567;-63
2021/01/16 03:41:56;;;;;;;;;;;;;;;16.97;63.52;100782.81;5053514;28;1494;-63
2021/01/16 03:44:21;;;;;;;;;;;;;;;16.95;63.38;100782.09;5053096;28;1885;-65
2021/01/16 03:46:47;;;;;;;;;;;;;;;16.93;64.03;100783.16;5053055;28;1484;-64
2021/01/16 03:49:12;;;;;;;;;;;;;;;16.96;64.37;100788.28;5051026;28;1575;-63
2021/01/16 03:51:38;;;;;;;;;;;;;;;16.91;64.30;100785.97;5052511;28;1685;-64
2021/01/16 03:54:03;;;;;;;;;;;;;;;16.93;65.08;100778.69;5053203;28;1595;-63
2021/01/16 03:56:29;;;;;;;;;;;;;;;16.96;64.43;100790.94;5053511;28;1717;-62
2021/01/16 03:58:54;;;;;;;;;;;;;;;16.93;65.62;100784.03;5053495;28;1694;-63
2021/01/16 04:01:19;;;;;;;;;;;;;;;16.90;64.49;100789.59;5056875;28;1598;-64
2021/01/16 04:03:45;;;;;;;;;;;;;;;16.90;65.59;100789.59;5065885;28;1897;-64
2021/01/16 04:06:17;;;;;;;;;;;;;;;16.92;64.63;100784.16;5053404;28;1226;-65
2021/01/16 04:08:43;;;;;;;;;;;;;;;16.90;65.15;100786.94;5054619;28;718;-58
2021/01/16 04:11:08;;;;;;;;;;;;;;;16.90;64.89;100781.59;5036338;28;1433;-64
2021/01/16 04:13:34;;;;;;;;;;;;;;;16.88;64.53;100783.53;5055461;28;864;-64
2021/01/16 04:15:59;;;;;;;;;;;;;;;16.87;64.97;100789.84;5057446;28;813;-58
2021/01/16 04:18:25;;;;;;;;;;;;;;;16.89;66.05;100801.25;5055784;28;1601;-58
2021/01/16 04:20:50;;;;;;;;;;;;;;;16.89;65.97;100798.56;5056451;28;1632;-58
2021/01/16 04:23:15;;;;;;;;;;;;;;;16.85;64.98;100789.97;5056629;28;1965;-58
2021/01/16 04:25:41;;;;;;;;;;;;;;;16.86;65.99;100793.50;5039533;28;1440;-63
2021/01/16 04:28:06;;;;;;;;;;;;;;;16.85;65.20;100794.44;5056937;28;1488;-63
2021/01/16 04:30:32;;;;;;;;;;;;;;;16.83;64.86;100794.59;5039250;28;1460;-58
2021/01/16 04:32:57;;;;;;;;;;;;;;;16.82;66.24;100790.19;5056777;28;1435;-58
2021/01/16 04:35:22;;;;;;;;;;;;;;;16.81;66.19;100793.84;5056283;28;1482;-58
2021/01/16 04:37:48;;;;;;;;;;;;;;;16.80;66.01;100793.94;5056624;28;1502;-58
2021/01/16 04:40:13;;;;;;;;;;;;;;;16.82;66.40;100797.38;5056651;28;1471;-58
2021/01/16 04:42:41;;;;;;;;;;;;;;;16.80;64.98;100809.97;5056773;28;1956;-63
2021/01/16 04:45:07;;;;;;;;;;;;;;;16.79;66.35;100803.78;5056191;28;1483;-57
2021/01/16 04:47:33;;;;;;;;;;;;;;;16.82;66.28;100810.72;5056193;28;1492;-64
2021/01/16 04:49:58;;;;;;;;;;;;;;;16.76;66.58;100805.84;5056637;28;1511;-63
2021/01/16 04:52:25;;;;;;;;;;;;;;;16.78;66.17;100806.56;5056154;28;1454;-63
2021/01/16 04:54:51;;;;;;;;;;;;;;;16.74;66.52;100789.94;5056711;28;1420;-58
2021/01/16 04:57:18;;;;;;;;;;;;;;;16.73;66.27;100795.38;5056212;28;1499;-63
2021/01/16 04:59:44;;;;;;;;;;;;;;;16.76;66.50;100806.69;5056059;28;1365;-58
2021/01/16 05:02:10;;;;;;;;;;;;;;;16.73;66.25;100798.03;5056108;28;1559;-58
2021/01/16 05:04:37;;;;;;;;;;;;;;;16.71;66.39;100790.16;5055733;28;1957;-58
2021/01/16 05:07:05;;;;;;;;;;;;;;;16.70;65.69;100793.81;5052898;28;1424;-58
2021/01/16 05:09:30;;;;;;;;;;;;;;;16.74;65.59;100803.28;5054199;28;1345;-65
2021/01/16 05:12:08;;;;;;;;;;;;;;;16.73;66.50;100798.03;5055806;28;1368;-63
2021/01/16 05:14:48;;;;;;;;;;;;;;;16.68;65.98;100788.59;5048850;28;1349;-58
2021/01/16 05:17:15;;;;;;;;;;;;;;;16.73;66.57;100792.72;5055694;28;1484;-58
2021/01/16 05:19:41;;;;;;;;;;;;;;;16.69;66.18;100786.75;5038218;28;1432;-63
2021/01/16 05:22:06;;;;;;;;;;;;;;;16.70;66.57;100780.47;5055964;28;1439;-63
2021/01/16 05:24:32;;;;;;;;;;;;;;;16.74;65.53;100797.09;5055424;28;1910;-58
2021/01/16 05:26:59;;;;;;;;;;;;;;;16.69;66.71;100782.28;5055172;28;1459;-58
2021/01/16 05:29:25;;;;;;;;;;;;;;;16.72;65.76;100786.53;5055470;28;1261;-63
2021/01/16 05:31:52;;;;;;;;;;;;;;;16.68;66.49;100785.06;5037962;28;1381;-58
2021/01/16 05:34:17;;;;;;;;;;;;;;;16.69;65.97;100787.63;5037683;28;1456;-57
2021/01/16 05:36:46;;;;;;;;;;;;;;;16.69;66.36;100779.63;5055592;28;1392;-58
2021/01/16 05:39:13;;;;;;;;;;;;;;;16.68;66.50;100788.59;5055403;28;1361;-58
2021/01/16 05:41:39;;;;;;;;;;;;;;;16.69;66.42;100794.75;5055236;28;1412;-64
2021/01/16 05:44:05;;;;;;;;;;;;;;;16.66;66.37;100790.53;5055401;28;1951;-58
2021/01/16 05:46:31;;;;;;;;;;;;;;;16.66;66.79;100787.84;5055460;28;1459;-63
2021/01/16 05:48:56;;;;;;;;;;;;;;;16.67;66.59;100786.91;5055305;28;1435;-63
2021/01/16 05:51:22;;;;;;;;;;;;;;;16.68;66.04;100793.91;5055128;28;1491;-58
2021/01/16 05:53:48;;;;;;;;;;;;;;;16.60;65.50;100788.34;5054793;28;1385;-58
2021/01/16 05:56:14;;;;;;;;;;;;;;;16.66;66.60;100798.53;5055376;28;1497;-63
2021/01/16 05:58:42;;;;;;;;;;;;;;;16.62;65.89;100791.72;5037624;28;1392;-57
2021/01/16 06:01:08;;;;;;;;;;;;;;;16.61;66.86;100795.38;5037142;28;1460;-58
2021/01/16 06:03:34;;;;;;;;;;;;;;;16.62;66.99;100804.25;5054889;28;1897;-63
2021/01/16 06:05:59;;;;;;;;;;;;;;;16.61;66.57;100795.38;5055015;28;1582;-63
2021/01/16 06:08:24;;;;;;;;;;;;;;;16.58;66.21;100795.59;5055325;28;1424;-58
2021/01/16 06:10:56;;;;;;;;;;;;;;;16.55;65.55;100793.16;5054814;28;1400;-64
2021/01/16 06:13:25;;;;;;;;;;;;;;;16.55;66.54;100795.84;5054929;28;1455;-57
2021/01/16 06:15:51;;;;;;;;;;;;;;;16.58;66.86;100814.28;5050364;28;1404;-58
2021/01/16 06:18:32;;;;;;;;;;;;;;;16.56;66.24;100797.53;5054407;28;1598;-64
2021/01/16 06:20:57;;;;;;;;;;;;;;;16.56;66.52;100800.22;5054718;28;1396;-58
2021/01/16 06:23:24;;;;;;;;;;;;;;;16.55;67.08;100805.66;5036729;28;1979;-58
2021/01/16 06:25:53;;;;;;;;;;;;;;;16.50;66.36;100798.03;5054775;28;1361;-63
2021/01/16 06:28:20;;;;;;;;;;;;;;;16.52;66.79;100803.25;5054420;28;1567;-65
2021/01/16 06:30:46;;;;;;;;;;;;;;;16.54;65.70;100810.16;5054777;28;1337;-63
2021/01/16 06:33:25;;;;;;;;;;;;;;;16.57;66.60;100809.91;5054718;28;1443;-58
2021/01/16 06:35:54;;;;;;;;;;;;;;;16.57;65.30;100806.41;5050185;28;1493;-58
2021/01/16 06:38:24;;;;;;;;;;;;;;;16.54;66.25;100791.47;5055099;28;1443;-63
2021/01/16 06:40:52;;;;;;;;;;;;;;;16.55;65.94;100809.19;5059061;28;1418;-58
2021/01/16 06:43:20;;;;;;;;;;;;;;;16.52;66.02;100801.44;5054145;28;1953;-63
2021/01/16 06:45:46;;;;;;;;;;;;;;;16.54;66.64;100803.97;5054198;28;1487;-63
2021/01/16 06:48:13;;;;;;;;;;;;;;;16.55;66.54;100805.66;5054361;28;1555;-58
2021/01/16 06:50:38;;;;;;;;;;;;;;;16.57;65.82;100817.06;5054355;28;1487;-63
2021/01/16 06:53:04;;;;;;;;;;;;;;;16.58;66.68;100822.31;5056629;28;1412;-57
2021/01/16 06:55:31;;;;;;;;;;;;;;;16.55;66.21;100822.53;5058768;28;1491;-58
2021/01/16 06:58:15;;;;;;;;;;;;;;;16.51;66.30;100810.38;5054163;28;1369;-57
2021/01/16 07:00:40;;;;;;;;;;;;;;;16.56;66.61;100812.72;5053040;28;1431;-63
2021/01/16 07:03:09;;;;;;;;;;;;;;;16.56;67.40;100829.59;5053722;28;1953;-58
2021/01/16 07:05:35;;;;;;;;;;;;;;;16.56;66.99;100818.91;5054304;28;1495;-64
2021/01/16 07:08:00;;;;;;;;;;;;;;;16.61;66.21;100819.41;5054910;28;1297;-58
2021/01/16 07:10:32;;;;;;;;;;;;;;;16.60;67.97;100827.53;5054235;28;1257;-58
2021/01/16 07:12:59;;;;;;;;;;;;;;;16.63;68.82;100828.16;5056594;28;1412;-58
2021/01/16 07:15:26;;;;;;;;;;;;;;;16.63;69.43;100836.16;5062114;28;1340;-63
2021/01/16 07:17:52;;;;;;;;;;;;;;;16.56;69.39;100826.91;5050163;28;1094;-57
2021/01/16 07:20:17;;;;;;;;;;;;;;;16.61;68.31;100831.88;5053988;28;1515;-63
2021/01/16 07:22:44;;;;;;;;;;;;;;;16.57;68.79;100830.44;5055061;28;1964;-58
2021/01/16 07:25:10;;;;;;;;;;;;;;;16.56;68.05;100832.25;5036974;28;1343;-64
2021/01/16 07:27:36;;;;;;;;;;;;;;;16.54;68.70;100836.88;5054735;28;917;-58
2021/01/16 07:30:09;;;;;;;;;;;;;;;16.54;68.72;100831.53;5054307;28;1348;-63
2021/01/16 07:32:38;;;;;;;;;;;;;;;16.49;68.70;100823.00;5053809;28;1613;-62
2021/01/16 07:35:05;;;;;;;;;;;;;;;16.52;68.47;100828.13;5053827;28;1226;-63
2021/01/16 07:37:31;;;;;;;;;;;;;;;16.47;67.80;100824.94;5058866;28;1470;-63
2021/01/16 07:39:58;;;;;;;;;;;;;;;16.50;67.15;100824.72;5055800;28;1473;-65
2021/01/16 07:42:25;;;;;;;;;;;;;;;16.55;67.17;100849.22;5053403;28;1352;-57
2021/01/16 07:44:59;;;;;;;;;;;;;;;16.63;67.17;100840.63;5052219;28;1380;-63
2021/01/16 07:47:24;;;;;;;;;;;;;;;16.58;66.58;100822.31;5053577;28;1428;-59
2021/01/16 07:49:55;;;;;;;;;;;;;;;16.55;66.88;100825.19;5056393;28;1658;-64
2021/01/16 07:52:25;;;;;;;;;;;;;;;16.59;65.31;100833.81;5058225;28;1063;-58
2021/01/16 07:55:02;;;;;;;;;;;;;;;16.55;65.59;100827.88;5057034;28;1202;-64
2021/01/16 07:57:29;;;;;;;;;;;;;;;16.49;63.14;100818.53;5071841;28;1713;-64
2021/01/16 07:59:56;;;;;;;;;;;;;;;16.57;65.60;100835.75;5076369;28;1625;-65
2021/01/16 08:02:28;;;;;;;;;;;;;;;16.54;64.70;100826.19;5076934;28;1657;-63
2021/01/16 08:04:56;;;;;;;;;;;;;;;16.55;66.29;100841.22;5073570;28;1613;-58
2021/01/16 08:07:25;;;;;;;;;;;;;;;16.55;66.09;100833.22;5074428;28;1558;-63
2021/01/16 08:09:51;;;;;;;;;;;;;;;16.60;65.76;100839.06;5069978;28;1375;-65
2021/01/16 08:12:20;;;;;;;;;;;;;;;16.60;65.98;100830.22;5061374;28;1435;-57
2021/01/16 08:14:45;;;;;;;;;;;;;;;16.54;66.08;100842.19;5033186;28;1516;-59
2021/01/16 08:17:46;;;;;;;;;;;;;;;16.49;64.70;100823.00;4688704;28;10000063;-58
2021/01/16 08:20:19;;;;;;;;;;;;;;;16.42;63.74;100827.97;4970521;28;1227;-63
2021/01/16 08:22:51;;;;;;;;;;;;;;;16.39;64.79;100832.69;5045585;28;1913;-63
2021/01/16 08:25:20;;;;;;;;;;;;;;;16.41;65.05;100846.75;4360762;28;10000830;-58
2021/01/16 08:27:50;;;;;;;;;;;;;;;16.47;65.41;100843.63;5046152;28;1488;-58
2021/01/16 08:30:17;;;;;;;;;;;;;;;16.45;64.68;100838.44;5047720;28;1558;-57
2021/01/16 08:32:53;;;;;;;;;;;;;;;16.46;66.30;100840.13;5036905;28;1595;-58
2021/01/16 08:35:44;;;;;;;;;;;;;;;16.57;66.06;100841.94;5047586;28;1609;-58
2021/01/16 08:38:16;;;;;;;;;;;;;;;16.76;63.65;100841.41;5049689;28;1677;-62
2021/01/16 08:40:42;;;;;;;;;;;;;;;17.00;65.04;100848.50;5042023;28;1601;-58
2021/01/16 08:43:08;;;;;;;;;;;;;;;17.20;63.05;100833.56;5051303;28;1890;-63
2021/01/16 08:45:33;;;;;;;;;;;;;;;17.25;64.57;100848.25;5053576;28;1621;-58
2021/01/16 08:48:00;;;;;;;;;;;;;;;17.41;62.91;100845.22;5053205;28;1513;-62
2021/01/16 08:50:29;;;;;;;;;;;;;;;17.53;64.51;100843.38;5044851;28;1479;-62
2021/01/16 08:52:55;;;;;;;;;;;;;;;17.60;64.00;100830.34;5056855;28;1346;-70
2021/01/16 08:55:28;;;;;;;;;;;;;;;17.67;64.30;100839.59;5051315;28;1412;-58
2021/01/16 08:58:07;;;;;;;;;;;;;;;17.70;63.80;100832.13;5055566;28;1536;-62
2021/01/16 09:00:33;;;;;;;;;;;;;;;17.72;63.60;100831.19;5057129;28;1479;-62
2021/01/16 09:03:05;;;;;;;;;;;;;;;17.78;63.96;100817.31;5045967;28;1898;-62
2021/01/16 09:05:32;;;;;;;;;;;;;;;17.85;63.29;100814.03;5050659;28;1535;-62
2021/01/16 09:07:58;;;;;;;;;;;;;;;17.92;63.00;100827.72;5052796;28;1483;-62
2021/01/16 09:10:24;;;;;;;;;;;;;;;17.98;62.99;100807.66;5061078;28;1571;-62
2021/01/16 09:12:50;;;;;;;;;;;;;;;18.09;63.05;100819.16;5057442;28;1539;-62
2021/01/16 09:15:15;;;;;;;;;;;;;;;18.14;62.19;100818.78;5053259;28;1495;-62
2021/01/16 09:17:41;;;;;;;;;;;;;;;18.19;62.07;100808.53;5045497;28;1386;-58
2021/01/16 09:20:06;;;;;;;;;;;;;;;18.25;62.20;100796.47;5054188;28;1500;-58
2021/01/16 09:22:32;;;;;;;;;;;;;;;18.29;62.14;100800.59;5049485;28;1973;-58
2021/01/16 09:25:16;;;;;;;;;;;;;;;18.31;61.66;100803.97;5050357;28;2026;-58
2021/01/16 09:27:45;;;;;;;;;;;;;;;18.37;61.93;100794.59;5050032;28;1468;-58
2021/01/16 09:30:21;;;;;;;;;;;;;;;18.39;61.94;100789.94;5056483;28;1555;-58
2021/01/16 09:32:46;;;;;;;;;;;;;;;18.65;61.92;100806.44;5055102;28;1505;-59
2021/01/16 09:35:11;;;;;;;;;;;;;;;18.77;60.75;100788.47;5051069;28;1617;-59
2021/01/16 09:37:38;;;;;;;;;;;;;;;18.81;61.15;100790.78;5049404;28;1693;-65
2021/01/16 09:40:11;;;;;;;;;;;;;;;18.96;60.95;100777.88;5053402;28;1690;-58
2021/01/16 09:42:43;;;;;;;;;;;;;;;18.91;60.78;100777.41;5044591;28;1910;-61
2021/01/16 09:45:09;;;;;;;;;;;;;;;19.02;60.75;100779.16;5049101;28;1488;-58
2021/01/16 09:47:35;;;;;;;;;;;;;;;19.00;61.16;100783.78;5051276;28;1437;-57
2021/01/16 09:50:00;;;;;;;;;;;;;;;19.03;60.60;100773.66;5045960;28;1709;-57
2021/01/16 09:52:26;;;;;;;;;;;;;;;18.91;61.81;100774.75;5052568;28;1543;-61
2021/01/16 09:54:51;;;;;;;;;;;;;;;18.94;62.08;100774.50;5051083;28;1467;-60
2021/01/16 09:57:36;;;;;;;;;;;;;;;18.84;62.16;100779.81;5052986;28;1385;-62
2021/01/16 10:00:11;;;;;;;;;;;;;;;18.79;61.69;100767.75;5040120;28;1330;-58
2021/01/16 10:02:40;;;;;;;;;;;;;;;18.78;61.74;100777.63;5045204;28;1890;-59
2021/01/16 10:05:16;;;;;;;;;;;;;;;18.71;62.47;100778.28;5051508;28;1539;-68
2021/01/16 10:07:44;;;;;;;;;;;;;;;18.71;62.65;100754.19;5049222;28;1270;-58
2021/01/16 10:10:13;;;;;;;;;;;;;;;18.67;62.79;100757.13;5049981;28;1583;-59
2021/01/16 10:12:40;;;;;;;;;;;;;;;18.72;63.24;100753.19;5028071;28;1763;-59
2021/01/16 10:15:06;;;;;;;;;;;;;;;18.65;63.48;100758.22;5027475;28;1479;-59
2021/01/16 10:17:32;;;;;;;;;;;;;;;18.60;63.52;100755.97;5032839;28;1638;-59
2021/01/16 10:20:05;;;;;;;;;;;;;;;18.59;63.54;100748.91;5031307;28;1516;-60
2021/01/16 10:22:30;;;;;;;;;;;;;;;18.74;63.30;100756.56;5027883;28;1477;-58
2021/01/16 10:24:58;;;;;;;;;;;;;;;18.75;62.88;100756.44;5027050;28;1914;-58
2021/01/16 10:27:43;;;;;;;;;;;;;;;18.63;62.96;100750.31;5024321;28;1659;-59
2021/01/16 10:30:32;;;;;;;;;;;;;;;18.74;62.87;100741.38;5028092;28;1423;-59
2021/01/16 10:32:57;;;;;;;;;;;;;;;18.63;62.96;100744.97;5037151;28;1658;-58
2021/01/16 10:35:30;;;;;;;;;;;;;;;18.48;63.42;100747.16;5037449;28;1424;-59
2021/01/16 10:37:57;;;;;;;;;;;;;;;18.39;63.33;100734.56;5053023;28;1421;-59
2021/01/16 10:40:23;;;;;;;;;;;;;;;18.40;63.06;100743.44;5053346;28;1725;-59
2021/01/16 10:42:52;;;;;;;;;;;;;;;18.46;63.78;100737.53;5053070;28;1987;-60
2021/01/16 10:45:18;;;;;;;;;;;;;;;18.50;63.48;100733.63;5052949;28;1666;-59
2021/01/16 10:47:45;;;;;;;;;;;;;;;18.40;63.09;100738.06;5053498;28;1433;-58
2021/01/16 10:50:37;;;;;;;;;;;;;;;18.34;63.18;100735.94;5053865;28;777;-58
2021/01/16 10:53:06;;;;;;;;;;;;;;;18.34;63.07;100734.09;5050792;28;1842;-58
2021/01/16 10:55:51;;;;;;;;;;;;;;;18.27;63.78;100738.28;5053908;28;838;-58
2021/01/16 10:58:26;;;;;;;;;;;;;;;18.23;63.74;100735.03;5055152;28;778;-58
2021/01/16 11:00:56;;;;;;;;;;;;;;;18.20;63.97;100737.94;5054872;28;1307;-58
2021/01/16 11:03:24;;;;;;;;;;;;;;;18.13;63.86;100719.91;5055005;28;1886;-58
2021/01/16 11:05:52;;;;;;;;;;;;;;;18.15;63.66;100734.00;5054864;28;808;-58
2021/01/16 11:08:25;;;;;;;;;;;;;;;18.13;63.88;100735.97;5054724;28;816;-58
2021/01/16 11:10:50;;;;;;;;;;;;;;;18.15;63.68;100726.81;5059801;28;1207;-58
2021/01/16 11:13:19;;;;;;;;;;;;;;;18.17;63.23;100719.50;5074671;28;824;-58
2021/01/16 11:15:44;;;;;;;;;;;;;;;18.22;63.35;100721.78;5074854;28;978;-59
2021/01/16 11:18:25;;;;;;;;;;;;;;;18.20;63.79;100713.03;5074599;28;842;-58
2021/01/16 11:20:56;;;;;;;;;;;;;;;18.20;63.42;100719.22;5074796;28;937;-58
2021/01/16 11:23:30;;;;;;;;;;;;;;;18.25;63.40;100713.50;5056047;28;2028;-58
2021/01/16 11:25:56;;;;;;;;;;;;;;;18.23;63.43;100718.97;5074838;28;718;-58
2021/01/16 11:28:27;;;;;;;;;;;;;;;18.26;63.15;100721.41;5074820;28;769;-60
2021/01/16 11:31:15;;;;;;;;;;;;;;;18.35;62.77;100705.53;5074589;28;804;-59
2021/01/16 11:33:42;;;;;;;;;;;;;;;18.36;63.15;100699.16;5073695;28;2337;-58
2021/01/16 11:36:07;;;;;;;;;;;;;;;18.36;62.76;100715.22;5074778;28;947;-59
2021/01/16 11:38:35;;;;;;;;;;;;;;;18.36;62.36;100718.75;5074432;28;848;-58
2021/01/16 11:41:01;;;;;;;;;;;;;;;18.32;63.13;100703.09;5074705;28;819;-58
2021/01/16 11:43:26;;;;;;;;;;;;;;;18.35;62.50;100718.91;5074321;28;1886;-58
2021/01/16 11:46:05;;;;;;;;;;;;;;;18.34;62.89;100711.84;5074728;28;833;-59
2021/01/16 11:48:32;;;;;;;;;;;;;;;18.42;63.16;100720.06;5074334;28;884;-58
2021/01/16 11:50:57;;;;;;;;;;;;;;;18.35;62.34;100725.09;5074332;28;1018;-58
2021/01/16 11:53:22;;;;;;;;;;;;;;;18.39;62.18;100723.84;5074538;28;824;-58
2021/01/16 11:55:47;;;;;;;;;;;;;;;18.35;62.68;100708.19;5074345;28;820;-58
2021/01/16 11:58:13;;;;;;;;;;;;;;;18.35;62.29;100714.38;5056717;28;822;-58
2021/01/16 12:00:38;;;;;;;;;;;;;;;18.37;62.93;100704.41;5074391;28;826;-59
2021/01/16 12:03:04;;;;;;;;;;;;;;;18.39;63.04;100699.75;5074382;28;1893;-58
2021/01/16 12:05:29;;;;;;;;;;;;;;;18.34;62.77;100693.94;5074424;28;821;-58
2021/01/16 12:07:55;;;;;;;;;;;;;;;18.36;62.47;100705.38;5074186;28;892;-59
2021/01/16 12:10:25;;;;;;;;;;;;;;;18.39;62.91;100701.59;5056341;28;1276;-58
2021/01/16 12:12:51;;;;;;;;;;;;;;;18.37;62.49;100690.16;5073894;28;1824;-58
2021/01/16 12:15:17;;;;;;;;;;;;;;;18.38;62.27;100689.16;5074747;28;825;-59
2021/01/16 12:17:44;;;;;;;;;;;;;;;18.40;62.17;100693.44;5074115;28;832;-59
2021/01/16 12:20:10;;;;;;;;;;;;;;;18.42;62.71;100704.00;5074031;28;939;-59
2021/01/16 12:22:36;;;;;;;;;;;;;;;18.42;62.16;100709.34;5074101;28;757;-58
2021/01/16 12:25:02;;;;;;;;;;;;;;;18.36;62.07;100699.16;5074044;28;919;-58
2021/01/16 12:27:29;;;;;;;;;;;;;;;18.43;62.27;100698.50;5074295;28;745;-58
2021/01/16 12:29:54;;;;;;;;;;;;;;;18.42;62.16;100704.00;5073980;28;917;-58
2021/01/16 12:32:20;;;;;;;;;;;;;;;18.46;62.13;100702.75;5074251;28;771;-58
2021/01/16 12:34:45;;;;;;;;;;;;;;;18.38;61.99;100705.25;5075079;28;883;-59
2021/01/16 12:37:10;;;;;;;;;;;;;;;18.39;62.24;100706.94;5077798;28;762;-58
2021/01/16 12:39:36;;;;;;;;;;;;;;;18.39;61.91;100709.63;5077400;28;830;-58
2021/01/16 12:42:01;;;;;;;;;;;;;;;18.40;62.10;100714.84;5077624;28;820;-59
2021/01/16 12:44:26;;;;;;;;;;;;;;;18.38;62.28;100698.06;5077249;28;1890;-58
2021/01/16 12:46:52;;;;;;;;;;;;;;;18.41;61.93;100702.31;5077309;28;875;-58
2021/01/16 12:49:19;;;;;;;;;;;;;;;18.42;62.07;100698.63;5077345;28;757;-58
2021/01/16 12:51:45;;;;;;;;;;;;;;;18.47;62.01;100699.09;5077314;28;774;-59
2021/01/16 12:54:14;;;;;;;;;;;;;;;18.47;62.20;100709.81;5077454;28;747;-59